createdAt,value
2023-07-02T00:00:17.107Z,68.16
2023-07-02T00:02:47.747Z,67.73
2023-07-02T00:05:15.400Z,67.53
2023-07-02T00:07:43.083Z,67.55
2023-07-02T00:10:12.060Z,67.49
2023-07-02T00:12:39.814Z,67.54
2023-07-02T00:15:08.123Z,67.73
2023-07-02T00:17:35.793Z,67.68
2023-07-02T00:20:10.237Z,67.65
2023-07-02T00:22:38.060Z,67.62
2023-07-02T00:25:05.824Z,67.57
2023-07-02T00:27:33.501Z,67.74
2023-07-02T00:30:01.167Z,67.94
2023-07-02T00:32:29.357Z,68.02
2023-07-02T00:34:57.073Z,67.98
2023-07-02T00:37:24.631Z,68.02
2023-07-02T00:39:53.645Z,67.90
2023-07-02T00:42:21.797Z,67.83
2023-07-02T00:44:49.493Z,68.12
2023-07-02T00:47:18.038Z,67.92
2023-07-02T00:49:46.113Z,67.60
2023-07-02T00:52:13.688Z,67.19
2023-07-02T00:54:42.252Z,67.23
2023-07-02T00:57:10.461Z,67.41
2023-07-02T00:59:39.495Z,67.47
2023-07-02T01:02:09.381Z,67.64
2023-07-02T01:04:38.788Z,67.61
2023-07-02T01:07:11.273Z,67.58
2023-07-02T01:09:39.081Z,67.87
2023-07-02T01:12:09.431Z,67.73
2023-07-02T01:14:41.550Z,68.00
2023-07-02T01:17:09.233Z,68.03
2023-07-02T01:19:43.065Z,68.05
2023-07-02T01:22:10.799Z,68.54
2023-07-02T01:24:40.131Z,68.44
2023-07-02T01:27:07.765Z,68.65
2023-07-02T01:29:38.477Z,68.69
2023-07-02T01:32:06.818Z,68.93
2023-07-02T01:34:34.542Z,69.30
2023-07-02T01:37:03.073Z,69.02
2023-07-02T01:39:30.685Z,69.23
2023-07-02T01:42:08.786Z,69.55
2023-07-02T01:44:37.106Z,69.69
2023-07-02T01:47:05.238Z,69.61
2023-07-02T01:49:33.931Z,69.33
2023-07-02T01:52:01.703Z,69.25
2023-07-02T01:54:29.652Z,69.22
2023-07-02T01:56:57.961Z,69.28
2023-07-02T01:59:25.914Z,69.12
2023-07-02T02:01:53.663Z,69.49
2023-07-02T02:04:21.366Z,69.46
2023-07-02T02:06:49.201Z,69.35
2023-07-02T02:09:16.971Z,69.38
2023-07-02T02:11:49.236Z,69.45
2023-07-02T02:14:17.560Z,69.44
2023-07-02T02:16:48.910Z,69.59
2023-07-02T02:19:17.450Z,70.14
2023-07-02T02:21:45.449Z,70.11
2023-07-02T02:24:14.510Z,70.23
2023-07-02T02:26:42.172Z,70.31
2023-07-02T02:29:09.835Z,70.30
2023-07-02T02:31:37.695Z,70.32
2023-07-02T02:34:05.994Z,70.15
2023-07-02T02:36:34.156Z,70.48
2023-07-02T02:39:01.920Z,70.21
2023-07-02T02:41:30.292Z,70.33
2023-07-02T02:43:57.964Z,70.72
2023-07-02T02:46:25.678Z,71.03
2023-07-02T02:48:54.113Z,71.43
2023-07-02T02:51:21.886Z,71.62
2023-07-02T02:53:49.525Z,71.58
2023-07-02T02:56:17.694Z,71.53
2023-07-02T02:58:45.385Z,71.32
2023-07-02T03:01:13.692Z,71.43
2023-07-02T03:03:46.430Z,71.22
2023-07-02T03:06:16.066Z,71.23
2023-07-02T03:08:44.180Z,71.26
2023-07-02T03:11:12.091Z,71.43
2023-07-02T03:13:40.112Z,71.48
2023-07-02T03:16:08.345Z,71.66
2023-07-02T03:18:36.372Z,71.70
2023-07-02T03:21:04.142Z,71.69
2023-07-02T03:23:31.810Z,71.85
2023-07-02T03:25:59.489Z,71.85
2023-07-02T03:28:27.237Z,72.13
2023-07-02T03:30:54.935Z,72.08
2023-07-02T03:33:22.678Z,71.99
2023-07-02T03:35:50.220Z,71.98
2023-07-02T03:38:17.939Z,71.87
2023-07-02T03:40:46.355Z,72.12
2023-07-02T03:43:14.541Z,72.23
2023-07-02T03:45:42.211Z,72.17
2023-07-02T03:48:09.899Z,72.19
2023-07-02T03:50:37.656Z,72.49
2023-07-02T03:53:05.280Z,72.66
2023-07-02T03:55:33.086Z,72.47
2023-07-02T03:58:00.716Z,72.52
2023-07-02T04:00:28.381Z,72.66
2023-07-02T04:02:56.083Z,72.99
2023-07-02T04:05:23.794Z,73.04
2023-07-02T04:07:51.473Z,72.99
2023-07-02T04:10:19.228Z,73.24
2023-07-02T04:12:47.019Z,73.04
2023-07-02T04:15:14.652Z,73.23
2023-07-02T04:17:42.476Z,73.15
2023-07-02T04:20:11.429Z,73.11
2023-07-02T04:22:39.373Z,73.15
2023-07-02T04:25:18.030Z,73.15
2023-07-02T04:27:52.221Z,73.11
2023-07-02T04:30:20.084Z,73.07
2023-07-02T04:32:48.521Z,73.06
2023-07-02T04:35:16.217Z,72.91
2023-07-02T04:37:43.874Z,73.00
2023-07-02T04:40:11.973Z,73.07
2023-07-02T04:42:40.338Z,73.05
2023-07-02T04:45:09.781Z,72.93
2023-07-02T04:47:38.273Z,72.98
2023-07-02T04:50:09.379Z,72.99
2023-07-02T04:52:37.036Z,73.07
2023-07-02T04:55:05.462Z,73.25
2023-07-02T04:57:33.272Z,73.23
2023-07-02T05:00:00.917Z,72.95
2023-07-02T05:02:28.606Z,73.07
2023-07-02T05:04:56.493Z,73.09
2023-07-02T05:07:24.524Z,73.18
2023-07-02T05:09:54.452Z,73.44
2023-07-02T05:12:22.097Z,73.44
2023-07-02T05:14:49.772Z,73.15
2023-07-02T05:17:17.659Z,73.19
2023-07-02T05:19:45.407Z,72.57
2023-07-02T05:22:13.377Z,72.08
2023-07-02T05:24:42.251Z,71.58
2023-07-02T05:27:09.952Z,71.55
2023-07-02T05:29:37.576Z,71.70
2023-07-02T05:32:06.113Z,71.78
2023-07-02T05:34:35.266Z,71.74
2023-07-02T05:37:03.018Z,71.75
2023-07-02T05:39:32.043Z,71.69
2023-07-02T05:41:59.683Z,71.44
2023-07-02T05:44:27.448Z,71.42
2023-07-02T05:46:55.158Z,71.58
2023-07-02T05:49:22.970Z,71.71
2023-07-02T05:51:50.652Z,71.37
2023-07-02T05:54:18.395Z,71.52
2023-07-02T05:56:46.083Z,71.52
2023-07-02T05:59:16.280Z,71.76
2023-07-02T06:01:45.986Z,71.90
2023-07-02T06:04:14.089Z,71.74
2023-07-02T06:06:41.824Z,71.82
2023-07-02T06:09:09.511Z,71.59
2023-07-02T06:11:37.149Z,71.71
2023-07-02T06:14:04.853Z,71.25
2023-07-02T06:16:32.484Z,70.95
2023-07-02T06:19:00.303Z,70.80
2023-07-02T06:21:31.193Z,70.68
2023-07-02T06:24:00.221Z,70.36
2023-07-02T06:26:28.124Z,70.16
2023-07-02T06:28:56.110Z,70.08
2023-07-02T06:31:23.913Z,69.37
2023-07-02T06:33:51.742Z,68.58
2023-07-02T06:36:20.876Z,68.18
2023-07-02T06:38:48.619Z,67.69
2023-07-02T06:41:16.793Z,66.62
2023-07-02T06:43:47.403Z,66.62
2023-07-02T06:46:15.280Z,66.00
2023-07-02T06:48:43.253Z,64.78
2023-07-02T06:51:13.917Z,64.38
2023-07-02T06:53:42.724Z,64.22
2023-07-02T06:56:13.297Z,63.91
2023-07-02T06:58:46.195Z,63.70
2023-07-02T07:01:13.834Z,63.90
2023-07-02T07:03:41.424Z,64.06
2023-07-02T07:06:09.265Z,64.21
2023-07-02T07:08:43.078Z,64.30
2023-07-02T07:11:10.871Z,64.27
2023-07-02T07:13:38.807Z,64.98
2023-07-02T07:16:06.508Z,65.13
2023-07-02T07:18:34.440Z,64.78
2023-07-02T07:21:02.407Z,65.48
2023-07-02T07:23:30.070Z,64.66
2023-07-02T07:25:57.832Z,63.35
2023-07-02T07:28:25.507Z,61.67
2023-07-02T07:30:53.330Z,61.31
2023-07-02T07:33:21.273Z,59.04
2023-07-02T07:35:48.983Z,59.16
2023-07-02T07:38:16.747Z,58.49
2023-07-02T07:40:44.722Z,57.01
2023-07-02T07:43:12.994Z,57.36
2023-07-02T07:45:40.725Z,57.18
2023-07-02T07:48:08.576Z,56.27
2023-07-02T07:50:36.328Z,56.53
2023-07-02T07:53:04.362Z,56.14
2023-07-02T07:55:32.082Z,56.21
2023-07-02T07:57:59.796Z,56.60
2023-07-02T08:00:28.285Z,56.70
2023-07-02T08:02:57.075Z,55.64
2023-07-02T08:05:25.943Z,55.65
2023-07-02T08:07:55.050Z,55.60
2023-07-02T08:10:23.035Z,55.54
2023-07-02T08:12:51.285Z,56.01
2023-07-02T08:15:19.472Z,55.81
2023-07-02T08:17:47.138Z,54.95
2023-07-02T08:20:15.029Z,55.06
2023-07-02T08:22:42.748Z,54.00
2023-07-02T08:25:10.412Z,54.46
2023-07-02T08:27:38.075Z,54.66
2023-07-02T08:30:06.580Z,54.21
2023-07-02T08:32:35.006Z,54.83
2023-07-02T08:35:02.926Z,54.20
2023-07-02T08:37:30.817Z,53.95
2023-07-02T08:39:58.742Z,53.90
2023-07-02T08:42:30.999Z,52.87
2023-07-02T08:44:59.399Z,53.19
2023-07-02T08:47:27.060Z,52.35
2023-07-02T08:49:54.943Z,51.38
2023-07-02T08:52:22.679Z,50.86
2023-07-02T08:54:50.451Z,50.75
2023-07-02T08:57:18.106Z,51.92
2023-07-02T08:59:46.189Z,51.93
2023-07-02T09:02:13.859Z,51.87
2023-07-02T09:04:41.585Z,51.74
2023-07-02T09:07:10.961Z,51.66
2023-07-02T09:09:49.031Z,50.41
2023-07-02T09:12:30.292Z,50.91
2023-07-02T09:15:07.988Z,51.29
2023-07-02T09:17:37.593Z,51.05
2023-07-02T09:20:08.306Z,51.38
2023-07-02T09:22:36.523Z,51.41
2023-07-02T09:25:04.812Z,50.68
2023-07-02T09:27:42.771Z,50.08
2023-07-02T09:30:16.852Z,50.62
2023-07-02T09:32:46.118Z,51.22
2023-07-02T09:35:14.404Z,51.40
2023-07-02T09:37:45.525Z,51.60
2023-07-02T09:40:13.381Z,51.53
2023-07-02T09:42:41.999Z,51.13
2023-07-02T09:45:11.797Z,50.41
2023-07-02T09:47:46.078Z,50.46
2023-07-02T09:50:13.788Z,50.85
2023-07-02T09:52:41.531Z,50.88
2023-07-02T09:55:09.727Z,51.09
2023-07-02T09:57:38.946Z,51.26
2023-07-02T10:00:09.021Z,51.20
2023-07-02T10:02:39.754Z,51.22
2023-07-02T10:05:08.014Z,51.05
2023-07-02T10:07:35.932Z,50.55
2023-07-02T10:10:04.167Z,49.91
2023-07-02T10:12:31.937Z,49.45
2023-07-02T10:15:00.052Z,48.98
2023-07-02T10:17:32.853Z,49.19
2023-07-02T10:20:02.404Z,49.54
2023-07-02T10:22:30.377Z,49.24
2023-07-02T10:25:01.533Z,48.58
2023-07-02T10:27:40.275Z,48.73
2023-07-02T10:30:09.578Z,48.67
2023-07-02T10:32:39.588Z,48.40
2023-07-02T10:35:17.978Z,48.80
2023-07-02T10:37:46.469Z,48.95
2023-07-02T10:40:14.749Z,48.68
2023-07-02T10:42:49.778Z,48.34
2023-07-02T10:45:18.707Z,47.95
2023-07-02T10:47:47.022Z,48.27
2023-07-02T10:50:24.595Z,48.60
2023-07-02T10:52:52.412Z,48.36
2023-07-02T10:55:20.269Z,48.79
2023-07-02T10:57:49.763Z,48.46
2023-07-02T11:00:17.759Z,47.47
2023-07-02T11:02:45.631Z,46.74
2023-07-02T11:05:14.183Z,45.76
2023-07-02T11:07:44.998Z,45.41
2023-07-02T11:10:19.421Z,45.27
2023-07-02T11:12:47.144Z,45.09
2023-07-02T11:15:16.300Z,45.36
2023-07-02T11:17:44.087Z,44.06
2023-07-02T11:20:13.415Z,43.85
2023-07-02T11:22:42.438Z,43.33
2023-07-02T11:25:23.406Z,43.06
2023-07-02T11:27:51.103Z,44.13
2023-07-02T11:30:18.757Z,44.19
2023-07-02T11:32:54.654Z,44.89
2023-07-02T11:35:23.092Z,44.89
2023-07-02T11:37:55.249Z,44.91
2023-07-02T11:40:22.949Z,45.09
2023-07-02T11:42:50.670Z,44.87
2023-07-02T11:45:18.640Z,45.34
2023-07-02T11:47:46.345Z,45.97
2023-07-02T11:50:25.296Z,46.20
2023-07-02T11:52:54.958Z,45.67
2023-07-02T11:55:23.034Z,45.79
2023-07-02T11:57:51.080Z,45.49
2023-07-02T12:00:19.156Z,45.68
2023-07-02T12:02:46.882Z,45.54
2023-07-02T12:05:14.800Z,45.08
2023-07-02T12:07:42.795Z,44.77
2023-07-02T12:10:10.908Z,44.64
2023-07-02T12:12:38.607Z,45.23
2023-07-02T12:15:06.965Z,45.87
2023-07-02T12:17:34.864Z,44.45
2023-07-02T12:20:02.601Z,44.96
2023-07-02T12:22:30.258Z,44.86
2023-07-02T12:24:58.886Z,44.51
2023-07-02T12:27:28.427Z,44.98
2023-07-02T12:29:57.578Z,44.46
2023-07-02T12:32:25.245Z,44.46
2023-07-02T12:34:52.966Z,44.73
2023-07-02T12:37:22.182Z,44.53
2023-07-02T12:39:49.838Z,45.04
2023-07-02T12:42:17.510Z,45.11
2023-07-02T12:44:46.291Z,44.78
2023-07-02T12:47:14.043Z,44.70
2023-07-02T12:49:41.705Z,45.29
2023-07-02T12:52:09.475Z,44.52
2023-07-02T12:54:37.253Z,44.75
2023-07-02T12:57:05.521Z,44.80
2023-07-02T12:59:33.319Z,45.03
2023-07-02T13:02:01.216Z,44.90
2023-07-02T13:04:29.897Z,44.60
2023-07-02T13:06:57.835Z,44.85
2023-07-02T13:09:25.562Z,44.84
2023-07-02T13:11:53.235Z,44.29
2023-07-02T13:14:21.092Z,44.22
2023-07-02T13:16:49.175Z,44.38
2023-07-02T13:19:17.248Z,44.54
2023-07-02T13:21:45.326Z,44.10
2023-07-02T13:24:13.792Z,43.92
2023-07-02T13:26:42.639Z,43.59
2023-07-02T13:29:12.095Z,42.78
2023-07-02T13:31:39.895Z,43.76
2023-07-02T13:34:08.765Z,43.43
2023-07-02T13:36:36.395Z,43.63
2023-07-02T13:39:04.365Z,43.99
2023-07-02T13:41:32.138Z,43.93
2023-07-02T13:43:59.925Z,44.19
2023-07-02T13:46:28.597Z,44.42
2023-07-02T13:48:57.063Z,44.12
2023-07-02T13:51:24.861Z,44.45
2023-07-02T13:53:52.600Z,44.04
2023-07-02T13:56:20.368Z,43.25
2023-07-02T13:59:08.302Z,43.74
2023-07-02T14:01:36.202Z,44.06
2023-07-02T14:04:04.760Z,44.22
2023-07-02T14:06:33.054Z,44.26
2023-07-02T14:09:00.898Z,44.41
2023-07-02T14:11:29.169Z,44.93
2023-07-02T14:13:57.241Z,44.64
2023-07-02T14:16:25.478Z,44.41
2023-07-02T14:18:53.402Z,44.53
2023-07-02T14:21:21.755Z,45.07
2023-07-02T14:23:49.539Z,44.65
2023-07-02T14:26:17.900Z,44.86
2023-07-02T14:28:45.664Z,44.84
2023-07-02T14:31:13.471Z,44.92
2023-07-02T14:33:41.703Z,44.28
2023-07-02T14:36:09.490Z,43.69
2023-07-02T14:38:37.228Z,43.88
2023-07-02T14:41:05.336Z,43.56
2023-07-02T14:43:33.272Z,43.61
2023-07-02T14:46:02.382Z,44.24
2023-07-02T14:48:30.131Z,44.46
2023-07-02T14:50:59.859Z,44.69
2023-07-02T14:53:28.114Z,44.17
2023-07-02T14:55:57.216Z,43.53
2023-07-02T14:58:25.279Z,43.85
2023-07-02T15:00:55.954Z,43.78
2023-07-02T15:03:24.691Z,43.92
2023-07-02T15:05:53.396Z,44.14
2023-07-02T15:08:22.212Z,44.13
2023-07-02T15:10:56.019Z,43.75
2023-07-02T15:13:25.228Z,42.88
2023-07-02T15:15:53.340Z,43.51
2023-07-02T15:18:24.131Z,43.77
2023-07-02T15:20:54.602Z,43.35
2023-07-02T15:23:22.817Z,42.62
2023-07-02T15:26:01.104Z,43.30
2023-07-02T15:28:29.307Z,43.07
2023-07-02T15:31:02.599Z,42.82
2023-07-02T15:33:30.340Z,43.11
2023-07-02T15:36:00.784Z,42.96
2023-07-02T15:38:28.836Z,43.09
2023-07-02T15:41:08.214Z,43.67
2023-07-02T15:43:36.492Z,43.54
2023-07-02T15:46:04.576Z,43.82
2023-07-02T15:48:32.529Z,43.53
2023-07-02T15:51:00.254Z,43.71
2023-07-02T15:53:28.025Z,43.95
2023-07-02T15:55:59.289Z,43.84
2023-07-02T15:58:28.146Z,43.80
2023-07-02T16:00:55.924Z,43.92
2023-07-02T16:03:24.597Z,44.03
2023-07-02T16:05:58.622Z,44.40
2023-07-02T16:08:27.501Z,44.55
2023-07-02T16:10:55.294Z,44.78
2023-07-02T16:13:23.134Z,45.09
2023-07-02T16:15:51.099Z,45.27
2023-07-02T16:18:19.008Z,45.66
2023-07-02T16:20:57.440Z,45.88
2023-07-02T16:23:25.365Z,46.14
2023-07-02T16:26:04.990Z,46.64
2023-07-02T16:28:34.250Z,46.84
2023-07-02T16:31:02.391Z,47.10
2023-07-02T16:33:34.880Z,47.44
2023-07-02T16:36:13.153Z,47.91
2023-07-02T16:38:41.019Z,48.18
2023-07-02T16:41:08.680Z,48.36
2023-07-02T16:43:36.646Z,48.67
2023-07-02T16:46:04.599Z,48.77
2023-07-02T16:48:32.383Z,48.97
2023-07-02T16:51:05.923Z,48.97
2023-07-02T16:53:33.544Z,49.36
2023-07-02T16:56:01.821Z,49.26
2023-07-02T16:58:30.525Z,49.23
2023-07-02T17:01:12.038Z,49.22
2023-07-02T17:03:40.057Z,49.34
2023-07-02T17:06:08.063Z,49.44
2023-07-02T17:08:40.153Z,49.76
2023-07-02T17:11:09.397Z,50.19
2023-07-02T17:13:37.605Z,50.17
2023-07-02T17:16:06.163Z,50.31
2023-07-02T17:18:34.541Z,50.48
2023-07-02T17:21:02.403Z,50.61
2023-07-02T17:23:30.164Z,51.00
2023-07-02T17:26:02.817Z,51.12
2023-07-02T17:28:32.248Z,51.44
2023-07-02T17:31:01.520Z,51.53
2023-07-02T17:33:29.419Z,51.67
2023-07-02T17:35:57.383Z,51.92
2023-07-02T17:38:25.287Z,51.98
2023-07-02T17:40:53.223Z,51.90
2023-07-02T17:43:21.319Z,51.90
2023-07-02T17:45:56.133Z,51.99
2023-07-02T17:48:26.044Z,52.16
2023-07-02T17:50:55.929Z,52.58
2023-07-02T17:53:23.914Z,53.44
2023-07-02T17:55:52.001Z,54.14
2023-07-02T17:58:20.182Z,54.44
2023-07-02T18:00:51.915Z,56.34
2023-07-02T18:03:20.327Z,57.20
2023-07-02T18:05:49.296Z,58.08
2023-07-02T18:08:17.779Z,58.62
2023-07-02T18:10:50.156Z,58.47
2023-07-02T18:13:18.219Z,58.89
2023-07-02T18:15:46.325Z,58.93
2023-07-02T18:18:14.465Z,59.26
2023-07-02T18:20:43.520Z,59.45
2023-07-02T18:23:11.753Z,59.79
2023-07-02T18:25:39.698Z,59.96
2023-07-02T18:28:11.360Z,60.02
2023-07-02T18:30:46.291Z,60.28
2023-07-02T18:33:13.955Z,60.61
2023-07-02T18:35:42.785Z,60.84
2023-07-02T18:38:10.811Z,60.84
2023-07-02T18:40:38.588Z,60.62
2023-07-02T18:43:06.251Z,60.81
2023-07-02T18:45:34.410Z,60.83
2023-07-02T18:48:02.715Z,60.85
2023-07-02T18:50:30.657Z,60.41
2023-07-02T18:52:58.666Z,59.76
2023-07-02T18:55:26.494Z,59.65
2023-07-02T18:57:54.457Z,59.72
2023-07-02T19:00:22.259Z,59.09
2023-07-02T19:02:50.569Z,58.84
2023-07-02T19:05:19.032Z,58.74
2023-07-02T19:07:46.852Z,58.83
2023-07-02T19:10:17.078Z,58.49
2023-07-02T19:12:46.793Z,57.45
2023-07-02T19:15:14.750Z,57.09
2023-07-02T19:17:43.520Z,56.61
2023-07-02T19:20:11.955Z,56.69
2023-07-02T19:22:39.908Z,56.47
2023-07-02T19:25:08.679Z,56.49
2023-07-02T19:27:36.947Z,56.44
2023-07-02T19:30:06.684Z,56.38
2023-07-02T19:32:38.286Z,56.62
2023-07-02T19:35:10.098Z,56.74
2023-07-02T19:37:37.961Z,56.52
2023-07-02T19:40:08.204Z,56.63
2023-07-02T19:42:36.033Z,56.80
2023-07-02T19:45:03.899Z,56.75
2023-07-02T19:47:32.189Z,56.61
2023-07-02T19:50:00.772Z,56.67
2023-07-02T19:52:29.748Z,56.61
2023-07-02T19:55:03.460Z,56.28
2023-07-02T19:57:31.133Z,56.10
2023-07-02T20:00:01.977Z,56.28
2023-07-02T20:02:37.807Z,56.46
2023-07-02T20:05:07.245Z,57.11
2023-07-02T20:07:35.686Z,57.48
2023-07-02T20:10:07.549Z,57.32
2023-07-02T20:12:38.103Z,57.51
2023-07-02T20:15:06.963Z,57.20
2023-07-02T20:17:35.488Z,56.47
2023-07-02T20:20:05.578Z,56.60
2023-07-02T20:22:33.535Z,56.34
2023-07-02T20:25:24.936Z,56.17
2023-07-02T20:27:48.952Z,56.16
2023-07-02T20:30:16.795Z,56.10
2023-07-02T20:32:44.936Z,55.91
2023-07-02T20:35:12.936Z,55.44
2023-07-02T20:37:40.606Z,55.45
2023-07-02T20:40:14.503Z,55.71
2023-07-02T20:42:42.581Z,55.76
2023-07-02T20:45:13.313Z,55.64
2023-07-02T20:47:42.566Z,55.37
2023-07-02T20:50:12.252Z,54.89
2023-07-02T20:52:40.907Z,54.73
2023-07-02T20:55:09.217Z,54.95
2023-07-02T20:57:36.988Z,54.34
2023-07-02T21:00:12.549Z,54.14
2023-07-02T21:02:41.415Z,53.78
2023-07-02T21:05:09.668Z,53.95
2023-07-02T21:07:37.333Z,53.74
2023-07-02T21:10:06.336Z,53.16
2023-07-02T21:12:34.086Z,53.43
2023-07-02T21:15:02.059Z,53.26
2023-07-02T21:17:29.852Z,53.32
2023-07-02T21:19:57.813Z,53.36
2023-07-02T21:22:25.549Z,53.57
2023-07-02T21:24:53.316Z,53.45
2023-07-02T21:27:22.333Z,53.57
2023-07-02T21:29:55.853Z,53.37
2023-07-02T21:32:24.105Z,53.09
2023-07-02T21:34:53.806Z,53.32
2023-07-02T21:37:22.082Z,53.39
2023-07-02T21:39:49.836Z,53.38
2023-07-02T21:42:17.628Z,52.88
2023-07-02T21:44:45.363Z,52.71
2023-07-02T21:47:13.374Z,53.02
2023-07-02T21:49:41.099Z,52.79
2023-07-02T21:52:08.865Z,52.97
2023-07-02T21:54:36.654Z,52.77
2023-07-02T21:57:05.103Z,52.66
2023-07-02T21:59:32.799Z,53.12
2023-07-02T22:02:00.460Z,52.52
2023-07-02T22:04:28.277Z,52.22
2023-07-02T22:06:57.593Z,52.20
2023-07-02T22:09:25.256Z,51.93
2023-07-02T22:11:52.927Z,51.99
2023-07-02T22:14:20.579Z,51.86
2023-07-02T22:16:48.307Z,52.20
2023-07-02T22:19:15.897Z,52.34
2023-07-02T22:21:46.137Z,52.62
2023-07-02T22:24:13.993Z,52.84
2023-07-02T22:26:41.677Z,52.75
2023-07-02T22:29:09.439Z,52.35
2023-07-02T22:31:37.136Z,52.56
2023-07-02T22:34:04.876Z,53.02
2023-07-02T22:36:32.611Z,53.34
2023-07-02T22:39:00.334Z,53.03
2023-07-02T22:41:28.036Z,53.09
2023-07-02T22:43:56.006Z,53.34
2023-07-02T22:46:23.714Z,53.67
2023-07-02T22:48:51.338Z,53.63
2023-07-02T22:51:19.118Z,53.81
2023-07-02T22:53:47.062Z,53.75
2023-07-02T22:56:16.782Z,53.89
2023-07-02T22:58:44.754Z,54.39
2023-07-02T23:01:13.961Z,54.36
2023-07-02T23:03:42.067Z,54.63
2023-07-02T23:06:10.082Z,55.13
2023-07-02T23:08:37.881Z,55.48
2023-07-02T23:11:05.508Z,55.96
2023-07-02T23:13:33.170Z,56.49
2023-07-02T23:16:04.187Z,56.14
2023-07-02T23:18:35.842Z,56.07
2023-07-02T23:21:04.245Z,55.91
2023-07-02T23:23:32.006Z,55.77
2023-07-02T23:25:59.775Z,55.44
2023-07-02T23:28:27.552Z,55.87
2023-07-02T23:30:55.224Z,55.68
2023-07-02T23:33:23.308Z,55.20
2023-07-02T23:35:51.230Z,55.44
2023-07-02T23:38:19.714Z,54.99
2023-07-02T23:40:47.997Z,55.14
2023-07-02T23:43:15.692Z,55.28
2023-07-02T23:45:43.540Z,55.03
2023-07-02T23:48:11.287Z,56.12
2023-07-02T23:50:39.192Z,56.43
2023-07-02T23:53:07.223Z,56.35
2023-07-02T23:55:35.194Z,56.71
2023-07-02T23:58:02.869Z,56.26
